Terminal Aerodrome Forecast
Issued by NWS

Current Version | Previous Version | Text Only | Print | Product List | Glossary On
Versions: 1 2 3 4 5 6 7 8 9 10 11 12 13 14 15 16 17 18 19 20 21 22 23 24 25 26 27 28 29 30 31
000
FTUS41 KOKX 041400 AAA
TAFGON
TAF AMD
KGON 041433Z 0415/0512 25008KT 4SM -RA BR BKN007 OVC090
      TEMPO 0415/0417 4SM -RA BR SCT007 OVC090
     FM041700 25010KT 5SM -RA BR BKN015 BKN050
     FM050300 27005KT 4SM -RA BR OVC010
     FM050600 33005KT 2SM -SN BR OVC010
     FM051000 34008KT 3SM -SN BR SCT010 OVC025=

USA.gov is the U.S. government's official web portal to all federal, state and local government web resources and services.